Waverly, Nebraska
Current Conditions -  °F | °C
As of 7:54 PM on Sunday 21 Dec 2014 (Local Time) from KLNK Reporting Station
Haze Haze  
Wind Chill: 35°   Ceiling: 600
Heat Index: 42°   Visibility: 3mi
Dew Point: 41°   Wind: 14mph
Humidity: 96%   Direction: 170°S
Pressure: 29.67"   Gusts: NA
Location:  40.92°N, 96.53°W
Report Text: KLNK 220154Z 17012KT 3SM BR OVC006 06/05 A2967 RMK AO2 RAB09E46 SLP050 P0000 T00560050
Loading
Personal Weather Stations






























Interactive Weather Map New forecast layout! Learn more

10-Day Weather Forecast

Advertisements
Track Severe Weather on mobile